createdAt,value
2023-05-21T00:00:47.713Z,50.11
2023-05-21T00:01:47.729Z,51.69
2023-05-21T00:02:47.755Z,51.25
2023-05-21T00:03:47.829Z,51.19
2023-05-21T00:04:47.710Z,51.69
2023-05-21T00:05:47.775Z,50.76
2023-05-21T00:06:47.680Z,51.46
2023-05-21T00:07:47.675Z,53.87
2023-05-21T00:08:47.658Z,53.67
2023-05-21T00:09:47.671Z,50.86
2023-05-21T00:10:47.642Z,57.96
2023-05-21T00:11:47.635Z,55.53
2023-05-21T00:12:47.646Z,58.01
2023-05-21T00:13:47.646Z,57.09
2023-05-21T00:14:47.638Z,57.97
2023-05-21T00:15:47.611Z,58.11
2023-05-21T00:16:47.813Z,57.94
2023-05-21T00:17:47.639Z,60.36
2023-05-21T00:18:47.665Z,59.43
2023-05-21T00:19:47.593Z,57.95
2023-05-21T00:20:47.803Z,57.69
2023-05-21T00:21:47.576Z,61.56
2023-05-21T00:22:47.575Z,59.70
2023-05-21T00:23:47.573Z,58.87
2023-05-21T00:24:47.552Z,61.43
2023-05-21T00:25:47.551Z,63.53
2023-05-21T00:26:47.536Z,62.86
2023-05-21T00:27:47.532Z,59.33
2023-05-21T00:28:47.551Z,58.83
2023-05-21T00:29:47.553Z,63.24
2023-05-21T00:30:47.539Z,59.66
2023-05-21T00:31:47.545Z,62.52
2023-05-21T00:32:47.565Z,60.27
2023-05-21T00:33:47.491Z,63.44
2023-05-21T00:34:47.471Z,62.73
2023-05-21T00:35:47.479Z,64.97
2023-05-21T00:36:47.468Z,63.85
2023-05-21T00:37:47.450Z,61.28
2023-05-21T00:38:47.441Z,62.32
2023-05-21T00:39:47.446Z,61.03
2023-05-21T00:40:47.431Z,65.04
2023-05-21T00:41:47.451Z,65.28
2023-05-21T00:42:47.433Z,66.88
2023-05-21T00:43:47.420Z,64.35
2023-05-21T00:44:47.730Z,64.09
2023-05-21T00:45:47.441Z,66.14
2023-05-21T00:46:47.406Z,65.21
2023-05-21T00:47:47.446Z,66.25
2023-05-21T00:48:47.376Z,66.86
2023-05-21T00:49:47.409Z,67.15
2023-05-21T00:50:47.381Z,68.62
2023-05-21T00:51:47.360Z,66.18
2023-05-21T00:52:47.353Z,67.44
2023-05-21T00:53:47.354Z,66.34
2023-05-21T00:54:47.339Z,65.48
2023-05-21T00:55:47.340Z,66.63
2023-05-21T00:56:47.324Z,64.09
2023-05-21T00:57:47.327Z,67.55
2023-05-21T00:58:47.316Z,69.81
2023-05-21T00:59:47.306Z,69.30
2023-05-21T01:00:47.298Z,64.55
2023-05-21T01:01:47.364Z,67.27
2023-05-21T01:02:47.358Z,67.28
2023-05-21T01:03:47.487Z,69.21
2023-05-21T01:04:47.276Z,67.16
2023-05-21T01:05:47.283Z,69.22
2023-05-21T01:06:47.268Z,67.46
2023-05-21T01:07:47.245Z,69.48
2023-05-21T01:08:47.239Z,67.63
2023-05-21T01:09:47.257Z,72.11
2023-05-21T01:10:47.254Z,68.85
2023-05-21T01:11:47.248Z,70.83
2023-05-21T01:12:47.273Z,69.33
2023-05-21T01:13:47.211Z,68.58
2023-05-21T01:14:47.206Z,70.52
2023-05-21T01:15:47.208Z,73.82
2023-05-21T01:16:47.262Z,69.82
2023-05-21T01:17:47.251Z,69.31
2023-05-21T01:18:47.289Z,71.91
2023-05-21T01:19:47.418Z,72.56
2023-05-21T01:20:47.252Z,72.35
2023-05-21T01:21:47.261Z,71.89
2023-05-21T01:22:47.255Z,72.60
2023-05-21T01:23:47.268Z,72.18
2023-05-21T01:24:47.254Z,75.06
2023-05-21T01:25:47.262Z,71.27
2023-05-21T01:26:47.264Z,72.19
2023-05-21T01:27:47.303Z,72.89
2023-05-21T01:28:47.303Z,72.05
2023-05-21T01:29:47.299Z,71.37
2023-05-21T01:30:47.300Z,72.77
2023-05-21T01:31:47.298Z,72.86
2023-05-21T01:32:47.349Z,71.97
2023-05-21T01:33:47.359Z,72.16
2023-05-21T01:34:47.325Z,72.60
2023-05-21T01:35:47.365Z,72.37
2023-05-21T01:36:47.342Z,72.42
2023-05-21T01:37:47.350Z,73.01
2023-05-21T01:38:47.357Z,73.69
2023-05-21T01:39:47.376Z,73.74
2023-05-21T01:40:47.425Z,74.26
2023-05-21T01:41:47.395Z,72.52
2023-05-21T01:42:47.407Z,75.62
2023-05-21T01:43:47.421Z,73.90
2023-05-21T01:44:47.427Z,73.87
2023-05-21T01:45:47.434Z,74.49
2023-05-21T01:46:47.570Z,71.36
2023-05-21T01:47:47.489Z,72.18
2023-05-21T01:48:47.439Z,72.44
2023-05-21T01:49:47.443Z,74.84
2023-05-21T01:50:47.457Z,72.28
2023-05-21T01:51:47.464Z,74.09
2023-05-21T01:52:47.470Z,75.69
2023-05-21T01:53:47.474Z,73.64
2023-05-21T01:54:47.478Z,74.52
2023-05-21T01:55:47.492Z,74.68
2023-05-21T01:56:47.497Z,74.27
2023-05-21T01:57:47.523Z,75.68
2023-05-21T01:58:47.515Z,75.20
2023-05-21T01:59:47.517Z,75.29
2023-05-21T02:00:47.522Z,73.99
2023-05-21T02:01:47.549Z,74.40
2023-05-21T02:02:47.673Z,77.18
2023-05-21T02:03:47.603Z,76.47
2023-05-21T02:04:47.543Z,75.14
2023-05-21T02:05:47.539Z,73.38
2023-05-21T02:06:47.537Z,75.42
2023-05-21T02:07:47.567Z,75.33
2023-05-21T02:08:47.544Z,76.79
2023-05-21T02:09:47.530Z,76.99
2023-05-21T02:10:47.532Z,75.67
2023-05-21T02:11:47.539Z,74.43
2023-05-21T02:12:47.539Z,73.98
2023-05-21T02:13:47.533Z,76.58
2023-05-21T02:14:47.545Z,77.26
2023-05-21T02:15:47.543Z,78.35
2023-05-21T02:16:47.599Z,75.60
2023-05-21T02:17:47.573Z,75.60
2023-05-21T02:18:47.564Z,76.80
2023-05-21T02:19:47.536Z,78.46
2023-05-21T02:20:47.554Z,76.74
2023-05-21T02:21:47.551Z,78.27
2023-05-21T02:22:47.548Z,77.01
2023-05-21T02:23:47.563Z,75.49
2023-05-21T02:24:47.581Z,79.64
2023-05-21T02:25:47.572Z,78.64
2023-05-21T02:26:47.571Z,75.00
2023-05-21T02:27:47.588Z,78.26
2023-05-21T02:28:47.560Z,76.71
2023-05-21T02:29:47.620Z,77.23
2023-05-21T02:30:47.580Z,77.83
2023-05-21T02:31:47.578Z,78.38
2023-05-21T02:32:47.578Z,76.80
2023-05-21T02:33:47.626Z,76.91
2023-05-21T02:34:47.584Z,79.72
2023-05-21T02:35:47.582Z,77.20
2023-05-21T02:36:47.587Z,78.44
2023-05-21T02:37:47.598Z,77.52
2023-05-21T02:38:47.587Z,74.63
2023-05-21T02:39:47.586Z,76.15
2023-05-21T02:40:47.591Z,76.96
2023-05-21T02:41:47.586Z,77.28
2023-05-21T02:42:47.602Z,75.08
2023-05-21T02:43:47.600Z,77.74
2023-05-21T02:44:47.599Z,77.21
2023-05-21T02:45:47.696Z,78.30
2023-05-21T02:46:47.597Z,76.92
2023-05-21T02:47:47.664Z,76.75
2023-05-21T02:48:47.602Z,79.23
2023-05-21T02:49:47.607Z,75.59
2023-05-21T02:50:47.639Z,78.36
2023-05-21T02:51:47.615Z,76.67
2023-05-21T02:52:47.612Z,78.89
2023-05-21T02:53:47.613Z,78.84
2023-05-21T02:54:47.616Z,78.91
2023-05-21T02:55:47.642Z,79.20
2023-05-21T02:56:47.634Z,77.69
2023-05-21T02:57:47.637Z,78.46
2023-05-21T02:58:47.623Z,78.54
2023-05-21T02:59:47.636Z,77.11
2023-05-21T03:00:47.644Z,79.36
2023-05-21T03:01:47.645Z,78.45
2023-05-21T03:02:47.693Z,78.57
2023-05-21T03:03:47.678Z,80.44
2023-05-21T03:04:47.634Z,77.76
2023-05-21T03:05:47.627Z,78.77
2023-05-21T03:06:47.652Z,80.55
2023-05-21T03:07:47.643Z,77.92
2023-05-21T03:08:47.654Z,77.84
2023-05-21T03:09:47.658Z,79.99
2023-05-21T03:10:47.666Z,78.38
2023-05-21T03:11:47.656Z,79.20
2023-05-21T03:12:47.668Z,74.58
2023-05-21T03:13:47.681Z,81.19
2023-05-21T03:14:47.685Z,78.65
2023-05-21T03:15:47.688Z,79.35
2023-05-21T03:16:47.713Z,78.18
2023-05-21T03:17:47.728Z,79.17
2023-05-21T03:18:47.710Z,79.58
2023-05-21T03:19:47.684Z,79.43
2023-05-21T03:20:47.710Z,80.36
2023-05-21T03:21:47.705Z,80.57
2023-05-21T03:22:47.722Z,80.86
2023-05-21T03:23:47.719Z,77.52
2023-05-21T03:24:47.709Z,77.70
2023-05-21T03:25:47.728Z,79.30
2023-05-21T03:26:47.729Z,79.71
2023-05-21T03:27:47.754Z,79.95
2023-05-21T03:28:47.749Z,80.43
2023-05-21T03:29:47.743Z,79.93
2023-05-21T03:30:47.757Z,78.87
2023-05-21T03:31:47.811Z,83.08
2023-05-21T03:32:47.819Z,80.38
2023-05-21T03:33:47.799Z,80.37
2023-05-21T03:34:47.773Z,77.83
2023-05-21T03:35:47.781Z,80.56
2023-05-21T03:36:47.795Z,80.32
2023-05-21T03:37:47.848Z,79.74
2023-05-21T03:38:47.806Z,78.43
2023-05-21T03:39:47.827Z,79.79
2023-05-21T03:40:47.824Z,80.06
2023-05-21T03:41:47.818Z,81.47
2023-05-21T03:42:47.830Z,79.88
2023-05-21T03:43:47.845Z,79.70
2023-05-21T03:44:47.892Z,79.39
2023-05-21T03:45:47.906Z,79.63
2023-05-21T03:46:47.869Z,79.58
2023-05-21T03:47:47.895Z,78.54
2023-05-21T03:48:47.894Z,80.10
2023-05-21T03:49:47.911Z,79.21
2023-05-21T03:50:47.923Z,81.53
2023-05-21T03:51:47.905Z,79.46
2023-05-21T03:52:47.917Z,81.31
2023-05-21T03:53:47.927Z,82.04
2023-05-21T03:54:47.950Z,79.59
2023-05-21T03:55:47.959Z,81.11
2023-05-21T03:56:47.982Z,79.89
2023-05-21T03:57:48.027Z,78.61
2023-05-21T03:58:47.985Z,79.58
2023-05-21T03:59:47.985Z,80.92
2023-05-21T04:00:48.012Z,79.72
2023-05-21T04:01:48.006Z,79.01
2023-05-21T04:02:48.126Z,79.71
2023-05-21T04:03:48.147Z,78.87
2023-05-21T04:04:48.186Z,80.13
2023-05-21T04:05:48.028Z,82.36
2023-05-21T04:06:48.090Z,79.65
2023-05-21T04:07:48.036Z,78.01
2023-05-21T04:08:48.064Z,81.99
2023-05-21T04:09:48.053Z,81.33
2023-05-21T04:10:48.081Z,80.07
2023-05-21T04:11:48.102Z,80.90
2023-05-21T04:12:48.071Z,80.08
2023-05-21T04:13:48.109Z,79.70
2023-05-21T04:14:48.104Z,78.40
2023-05-21T04:15:48.136Z,79.68
2023-05-21T04:16:48.106Z,78.18
2023-05-21T04:17:48.150Z,80.41
2023-05-21T04:18:48.148Z,77.92
2023-05-21T04:19:48.115Z,78.27
2023-05-21T04:20:48.120Z,78.08
2023-05-21T04:21:48.115Z,82.60
2023-05-21T04:22:48.124Z,80.41
2023-05-21T04:23:48.117Z,81.13
2023-05-21T04:24:48.150Z,80.46
2023-05-21T04:25:48.143Z,80.06
2023-05-21T04:26:48.194Z,81.27
2023-05-21T04:27:48.152Z,79.92
2023-05-21T04:28:48.167Z,75.72
2023-05-21T04:29:50.591Z,81.99
2023-05-21T04:30:48.356Z,78.32
2023-05-21T04:31:48.448Z,80.44
2023-05-21T04:32:48.405Z,79.32
2023-05-21T04:33:48.318Z,81.52
2023-05-21T04:34:48.329Z,82.45
2023-05-21T04:35:48.333Z,79.60
2023-05-21T04:36:48.373Z,78.94
2023-05-21T04:37:48.348Z,79.78
2023-05-21T04:38:48.348Z,80.23
2023-05-21T04:39:48.359Z,79.49
2023-05-21T04:40:48.381Z,82.38
2023-05-21T04:41:48.421Z,79.11
2023-05-21T04:42:48.399Z,80.32
2023-05-21T04:43:48.390Z,79.03
2023-05-21T04:44:48.426Z,77.68
2023-05-21T04:45:48.403Z,80.46
2023-05-21T04:46:48.483Z,80.30
2023-05-21T04:47:48.456Z,82.14
2023-05-21T04:48:48.425Z,79.30
2023-05-21T04:49:48.436Z,79.64
2023-05-21T04:50:48.440Z,79.90
2023-05-21T04:51:48.441Z,77.71
2023-05-21T04:52:48.455Z,77.58
2023-05-21T04:53:48.470Z,77.68
2023-05-21T04:54:48.488Z,78.94
2023-05-21T04:55:48.505Z,80.74
2023-05-21T04:56:48.473Z,79.41
2023-05-21T04:57:48.503Z,79.30
2023-05-21T04:58:48.494Z,77.00
2023-05-21T04:59:48.500Z,79.75
2023-05-21T05:00:48.530Z,79.86
2023-05-21T05:01:48.500Z,78.86
2023-05-21T05:02:48.590Z,81.46
2023-05-21T05:03:48.625Z,75.76
2023-05-21T05:04:48.513Z,80.77
2023-05-21T05:05:48.509Z,78.61
2023-05-21T05:06:48.512Z,79.72
2023-05-21T05:07:48.506Z,78.82
2023-05-21T05:08:48.513Z,76.98
2023-05-21T05:09:48.498Z,80.63
2023-05-21T05:10:48.518Z,79.10
2023-05-21T05:11:48.528Z,76.77
2023-05-21T05:12:48.513Z,81.60
2023-05-21T05:13:48.509Z,79.42
2023-05-21T05:14:48.509Z,76.95
2023-05-21T05:15:50.236Z,78.43
2023-05-21T05:16:48.616Z,79.81
2023-05-21T05:17:48.616Z,79.68
2023-05-21T05:18:48.590Z,77.69
2023-05-21T05:19:48.585Z,79.86
2023-05-21T05:20:48.606Z,77.06
2023-05-21T05:21:48.583Z,79.90
2023-05-21T05:22:48.578Z,80.43
2023-05-21T05:23:48.588Z,79.85
2023-05-21T05:24:48.583Z,78.40
2023-05-21T05:25:48.597Z,77.03
2023-05-21T05:26:48.580Z,78.59
2023-05-21T05:27:48.574Z,78.71
2023-05-21T05:28:48.579Z,79.73
2023-05-21T05:29:48.568Z,78.28
2023-05-21T05:30:48.622Z,79.06
2023-05-21T05:31:48.614Z,77.86
2023-05-21T05:32:48.629Z,78.44
2023-05-21T05:33:48.594Z,79.03
2023-05-21T05:34:48.608Z,78.18
2023-05-21T05:35:48.621Z,78.31
2023-05-21T05:36:48.601Z,78.82
2023-05-21T05:37:48.634Z,78.37
2023-05-21T05:38:48.600Z,78.13
2023-05-21T05:39:48.587Z,77.14
2023-05-21T05:40:48.604Z,76.38
2023-05-21T05:41:48.589Z,76.20
2023-05-21T05:42:48.576Z,78.36
2023-05-21T05:43:48.576Z,79.48
2023-05-21T05:44:48.593Z,78.30
2023-05-21T05:45:48.592Z,78.00
2023-05-21T05:46:48.576Z,76.03
2023-05-21T05:47:48.614Z,79.24
2023-05-21T05:48:48.567Z,76.67
2023-05-21T05:49:48.582Z,75.37
2023-05-21T05:50:48.570Z,80.92
2023-05-21T05:51:48.580Z,78.50
2023-05-21T05:52:48.595Z,77.68
2023-05-21T05:53:48.569Z,78.46
2023-05-21T05:54:48.572Z,75.83
2023-05-21T05:55:48.586Z,78.91
2023-05-21T05:56:48.605Z,80.64
2023-05-21T05:57:48.594Z,79.75
2023-05-21T05:58:48.611Z,79.29
2023-05-21T05:59:48.613Z,75.24
2023-05-21T06:00:48.580Z,78.13
2023-05-21T06:01:48.585Z,82.12
2023-05-21T06:02:48.637Z,77.99
2023-05-21T06:03:48.655Z,78.37
2023-05-21T06:04:48.565Z,77.74
2023-05-21T06:05:48.633Z,76.89
2023-05-21T06:06:48.574Z,80.11
2023-05-21T06:07:48.590Z,77.91
2023-05-21T06:08:48.557Z,76.22
2023-05-21T06:09:48.567Z,77.49
2023-05-21T06:10:48.560Z,78.51
2023-05-21T06:11:48.551Z,76.93
2023-05-21T06:12:48.552Z,79.71
2023-05-21T06:13:48.545Z,78.68
2023-05-21T06:14:48.553Z,77.78
2023-05-21T06:15:48.955Z,77.91
2023-05-21T06:16:48.528Z,78.75
2023-05-21T06:17:48.587Z,77.89
2023-05-21T06:18:48.571Z,80.25
2023-05-21T06:19:48.519Z,76.37
2023-05-21T06:20:48.548Z,77.09
2023-05-21T06:21:48.524Z,77.23
2023-05-21T06:22:48.606Z,79.05
2023-05-21T06:23:48.516Z,77.82
2023-05-21T06:24:48.525Z,75.00
2023-05-21T06:25:48.523Z,74.87
2023-05-21T06:26:48.531Z,76.09
2023-05-21T06:27:48.516Z,78.97
2023-05-21T06:28:48.502Z,78.64
2023-05-21T06:29:48.540Z,79.14
2023-05-21T06:30:48.528Z,76.92
2023-05-21T06:31:48.526Z,78.00
2023-05-21T06:32:48.550Z,75.54
2023-05-21T06:33:48.576Z,77.83
2023-05-21T06:34:48.522Z,75.59
2023-05-21T06:35:48.524Z,79.20
2023-05-21T06:36:48.500Z,77.21
2023-05-21T06:37:48.523Z,74.94
2023-05-21T06:38:48.512Z,77.26
2023-05-21T06:39:48.542Z,75.43
2023-05-21T06:40:48.566Z,78.08
2023-05-21T06:41:48.576Z,78.42
2023-05-21T06:42:48.585Z,76.14
2023-05-21T06:43:48.612Z,77.17
2023-05-21T06:44:48.653Z,73.21
2023-05-21T06:45:48.706Z,72.08
2023-05-21T06:46:48.687Z,78.28
2023-05-21T06:47:48.728Z,77.23
2023-05-21T06:48:48.721Z,74.38
2023-05-21T06:49:48.759Z,74.71
2023-05-21T06:50:48.799Z,74.72
2023-05-21T06:51:48.836Z,77.31
2023-05-21T06:52:48.868Z,77.19
2023-05-21T06:53:48.902Z,77.00
2023-05-21T06:54:48.975Z,74.79
2023-05-21T06:55:49.006Z,74.82
2023-05-21T06:56:49.030Z,77.33
2023-05-21T06:57:49.076Z,77.02
2023-05-21T06:58:49.121Z,76.79
2023-05-21T06:59:49.159Z,79.17
2023-05-21T07:00:49.217Z,74.91
2023-05-21T07:01:49.286Z,76.30
2023-05-21T07:02:49.314Z,74.03
2023-05-21T07:03:49.319Z,78.73
2023-05-21T07:04:49.300Z,78.58
2023-05-21T07:05:49.329Z,77.03
2023-05-21T07:06:49.365Z,76.80
2023-05-21T07:07:49.403Z,76.14
2023-05-21T07:08:49.494Z,77.66
2023-05-21T07:09:49.525Z,75.92
2023-05-21T07:10:49.581Z,76.37
2023-05-21T07:11:49.644Z,78.03
2023-05-21T07:12:49.664Z,75.05
2023-05-21T07:13:49.725Z,79.15
2023-05-21T07:14:49.772Z,78.00
2023-05-21T07:15:49.825Z,77.05
2023-05-21T07:16:49.881Z,75.74
2023-05-21T07:17:49.923Z,79.51
2023-05-21T07:18:50.008Z,77.44
2023-05-21T07:19:49.998Z,75.71
2023-05-21T07:20:50.070Z,74.17
2023-05-21T07:21:50.128Z,74.25
2023-05-21T07:22:50.172Z,76.84
2023-05-21T07:23:50.225Z,77.09
2023-05-21T07:24:50.379Z,74.95
2023-05-21T07:25:50.359Z,77.83
2023-05-21T07:26:50.370Z,77.74
2023-05-21T07:27:50.442Z,76.42
2023-05-21T07:28:50.497Z,77.64
2023-05-21T07:29:50.560Z,73.67
2023-05-21T07:30:50.624Z,77.81
2023-05-21T07:31:50.664Z,73.13
2023-05-21T07:32:50.750Z,78.43
2023-05-21T07:33:50.775Z,73.58
2023-05-21T07:34:53.455Z,78.21
2023-05-21T07:35:50.814Z,75.68
2023-05-21T07:36:50.817Z,77.20
2023-05-21T07:37:50.889Z,75.70
2023-05-21T07:38:50.796Z,77.32
2023-05-21T07:39:50.792Z,76.96
2023-05-21T07:40:50.793Z,73.84
2023-05-21T07:41:50.791Z,74.86
2023-05-21T07:42:50.781Z,77.19
2023-05-21T07:43:50.799Z,72.15
2023-05-21T07:44:50.745Z,76.21
2023-05-21T07:45:50.774Z,74.64
2023-05-21T07:46:50.737Z,73.48
2023-05-21T07:47:50.795Z,73.56
2023-05-21T07:48:50.741Z,74.75
2023-05-21T07:49:50.721Z,75.36
2023-05-21T07:50:50.742Z,75.57
2023-05-21T07:51:50.704Z,72.92
2023-05-21T07:52:50.713Z,72.63
2023-05-21T07:53:50.698Z,72.72
2023-05-21T07:54:50.693Z,71.77
2023-05-21T07:55:50.685Z,74.09
2023-05-21T07:56:50.675Z,73.28
2023-05-21T07:57:50.668Z,73.75
2023-05-21T07:58:50.667Z,70.54
2023-05-21T07:59:50.649Z,73.98
2023-05-21T08:00:50.661Z,75.65
2023-05-21T08:01:50.650Z,73.70
2023-05-21T08:02:50.737Z,73.70
2023-05-21T08:03:50.775Z,70.36
2023-05-21T08:04:50.680Z,72.24
2023-05-21T08:05:50.648Z,72.92
2023-05-21T08:06:50.648Z,69.56
2023-05-21T08:07:50.686Z,74.63
2023-05-21T08:08:50.741Z,72.80
2023-05-21T08:09:50.812Z,71.95
2023-05-21T08:10:50.855Z,72.20
2023-05-21T08:11:50.931Z,73.75
2023-05-21T08:12:50.974Z,71.32
2023-05-21T08:13:51.020Z,72.94
2023-05-21T08:14:51.090Z,71.21
2023-05-21T08:15:53.154Z,71.32
2023-05-21T08:16:51.246Z,71.42
2023-05-21T08:17:51.274Z,72.14
2023-05-21T08:18:51.361Z,73.17
2023-05-21T08:19:51.330Z,72.25
2023-05-21T08:20:51.421Z,73.32
2023-05-21T08:21:52.984Z,74.42
2023-05-21T08:22:51.481Z,74.32
2023-05-21T08:23:51.532Z,74.87
2023-05-21T08:24:51.598Z,72.41
2023-05-21T08:25:51.654Z,73.81
2023-05-21T08:26:51.723Z,73.32
2023-05-21T08:27:52.532Z,74.49
2023-05-21T08:28:51.785Z,73.58
2023-05-21T08:29:51.832Z,71.84
2023-05-21T08:30:51.912Z,73.28
2023-05-21T08:31:51.985Z,72.33
2023-05-21T08:32:52.042Z,74.23
2023-05-21T08:33:52.046Z,73.64
2023-05-21T08:34:52.960Z,72.47
2023-05-21T08:35:52.131Z,72.11
2023-05-21T08:36:52.171Z,71.38
2023-05-21T08:37:52.201Z,73.56
2023-05-21T08:38:52.274Z,72.84
2023-05-21T08:39:52.295Z,74.21
2023-05-21T08:40:52.351Z,73.08
2023-05-21T08:41:52.448Z,71.66
2023-05-21T08:42:52.471Z,71.24
2023-05-21T08:43:54.337Z,71.55
2023-05-21T08:44:52.661Z,71.59
2023-05-21T08:45:52.676Z,70.48
2023-05-21T08:46:52.671Z,73.31
2023-05-21T08:47:52.758Z,73.03
2023-05-21T08:48:52.769Z,73.97
2023-05-21T08:49:52.811Z,75.79
2023-05-21T08:50:52.894Z,75.30
2023-05-21T08:51:52.972Z,73.09
2023-05-21T08:52:52.961Z,74.14
2023-05-21T08:53:53.056Z,72.78
2023-05-21T08:54:53.065Z,77.54
2023-05-21T08:55:53.131Z,74.66
2023-05-21T08:56:53.160Z,75.72
2023-05-21T08:57:53.224Z,78.73
2023-05-21T08:58:53.325Z,73.60
2023-05-21T08:59:53.320Z,75.48
2023-05-21T09:00:53.445Z,76.81
2023-05-21T09:01:53.529Z,77.17
2023-05-21T09:02:53.514Z,76.50
2023-05-21T09:03:55.610Z,75.04
2023-05-21T09:04:54.529Z,75.18
2023-05-21T09:05:53.483Z,75.11
2023-05-21T09:06:53.497Z,76.40
2023-05-21T09:07:53.514Z,76.45
2023-05-21T09:08:53.486Z,76.77
2023-05-21T09:09:53.454Z,75.57
2023-05-21T09:10:53.457Z,74.92
2023-05-21T09:11:53.457Z,76.53
2023-05-21T09:12:53.453Z,77.61
2023-05-21T09:13:53.443Z,73.89
2023-05-21T09:14:53.432Z,77.52
2023-05-21T09:15:53.469Z,77.13
2023-05-21T09:16:53.546Z,77.23
2023-05-21T09:17:53.575Z,76.40
2023-05-21T09:18:53.656Z,79.02
2023-05-21T09:19:53.641Z,75.28
2023-05-21T09:20:53.696Z,77.50
2023-05-21T09:21:53.715Z,76.13
2023-05-21T09:22:53.734Z,77.14
2023-05-21T09:23:53.805Z,76.32
2023-05-21T09:24:53.828Z,75.71
2023-05-21T09:25:53.859Z,76.97
2023-05-21T09:26:53.912Z,77.93
2023-05-21T09:27:53.944Z,74.36
2023-05-21T09:28:53.976Z,77.36
2023-05-21T09:29:54.024Z,76.17
2023-05-21T09:30:54.099Z,75.94
2023-05-21T09:31:54.198Z,76.96
2023-05-21T09:32:54.127Z,74.88
2023-05-21T09:33:54.203Z,74.64
2023-05-21T09:34:54.212Z,76.73
2023-05-21T09:35:54.221Z,74.28
2023-05-21T09:36:54.249Z,77.20
2023-05-21T09:37:54.287Z,75.62
2023-05-21T09:38:54.343Z,77.56
2023-05-21T09:39:54.370Z,78.17
2023-05-21T09:40:54.383Z,77.50
2023-05-21T09:41:54.405Z,75.73
2023-05-21T09:42:54.452Z,75.98
2023-05-21T09:43:54.493Z,75.79
2023-05-21T09:44:54.527Z,74.99
2023-05-21T09:45:54.644Z,77.24
2023-05-21T09:46:54.709Z,77.51
2023-05-21T09:47:54.590Z,77.66
2023-05-21T09:48:54.594Z,73.27
2023-05-21T09:49:54.646Z,77.13
2023-05-21T09:50:54.666Z,78.92
2023-05-21T09:51:54.676Z,74.98
2023-05-21T09:52:54.712Z,75.41
2023-05-21T09:53:54.734Z,75.23
2023-05-21T09:54:54.746Z,75.14
2023-05-21T09:55:54.815Z,75.22
2023-05-21T09:56:54.838Z,76.72
2023-05-21T09:57:54.829Z,77.18
2023-05-21T09:58:54.954Z,71.11
2023-05-21T09:59:54.866Z,73.68
2023-05-21T10:00:54.900Z,76.02
2023-05-21T10:01:54.935Z,74.93
2023-05-21T10:02:54.992Z,75.29
2023-05-21T10:03:54.999Z,72.40
2023-05-21T10:04:55.012Z,70.60
2023-05-21T10:05:54.997Z,71.30
2023-05-21T10:06:55.014Z,72.62
2023-05-21T10:07:55.015Z,74.91
2023-05-21T10:08:55.049Z,73.80
2023-05-21T10:09:55.053Z,72.63
2023-05-21T10:10:55.096Z,72.47
2023-05-21T10:11:55.086Z,73.52
2023-05-21T10:12:55.122Z,71.97
2023-05-21T10:13:55.122Z,71.79
2023-05-21T10:14:55.155Z,72.24
2023-05-21T10:15:55.201Z,75.62
2023-05-21T10:16:55.173Z,76.07
2023-05-21T10:17:55.206Z,71.99
2023-05-21T10:18:55.225Z,76.25
2023-05-21T10:19:55.234Z,75.26
2023-05-21T10:20:55.246Z,75.77
2023-05-21T10:21:55.253Z,71.19
2023-05-21T10:22:55.278Z,73.71
2023-05-21T10:23:55.288Z,75.86
2023-05-21T10:24:55.320Z,73.85
2023-05-21T10:25:55.346Z,73.58
2023-05-21T10:26:55.344Z,73.06
2023-05-21T10:27:55.347Z,74.84
2023-05-21T10:28:55.356Z,75.18
2023-05-21T10:29:55.385Z,72.64
2023-05-21T10:30:55.414Z,74.11
2023-05-21T10:31:55.433Z,75.73
2023-05-21T10:32:55.456Z,73.65
2023-05-21T10:33:55.434Z,73.81
2023-05-21T10:34:55.423Z,76.05
2023-05-21T10:35:55.435Z,74.32
2023-05-21T10:36:55.474Z,76.25
2023-05-21T10:37:55.468Z,78.21
2023-05-21T10:38:55.461Z,75.22
2023-05-21T10:39:55.470Z,76.48
2023-05-21T10:40:55.467Z,73.89
2023-05-21T10:41:57.662Z,74.93
2023-05-21T10:42:55.473Z,78.50
2023-05-21T10:43:55.496Z,76.82
2023-05-21T10:44:55.483Z,78.74
2023-05-21T10:45:55.475Z,77.02
2023-05-21T10:46:55.457Z,77.28
2023-05-21T10:47:55.478Z,75.90
2023-05-21T10:48:55.428Z,77.03
2023-05-21T10:49:55.428Z,75.18
2023-05-21T10:50:55.460Z,74.65
2023-05-21T10:51:55.431Z,77.99
2023-05-21T10:52:55.415Z,78.06
2023-05-21T10:53:55.409Z,77.77
2023-05-21T10:54:55.438Z,78.12
2023-05-21T10:55:55.407Z,77.67
2023-05-21T10:56:55.391Z,76.84
2023-05-21T10:57:55.359Z,76.01
2023-05-21T10:58:55.380Z,77.25
2023-05-21T10:59:55.345Z,73.20
2023-05-21T11:00:55.360Z,76.25
2023-05-21T11:01:55.338Z,77.52
2023-05-21T11:02:55.451Z,76.15
2023-05-21T11:03:55.350Z,77.69
2023-05-21T11:04:55.315Z,77.74
2023-05-21T11:05:55.333Z,77.31
2023-05-21T11:06:55.296Z,76.57
2023-05-21T11:07:55.289Z,74.64
2023-05-21T11:08:55.972Z,76.83
2023-05-21T11:09:55.314Z,75.48
2023-05-21T11:10:55.280Z,76.13
2023-05-21T11:11:55.264Z,76.16
2023-05-21T11:12:55.259Z,75.32
2023-05-21T11:13:55.263Z,75.28
2023-05-21T11:14:55.251Z,75.13
2023-05-21T11:15:55.266Z,76.66
2023-05-21T11:16:55.261Z,76.68
2023-05-21T11:17:55.237Z,75.55
2023-05-21T11:18:55.278Z,76.02
2023-05-21T11:19:55.229Z,77.74
2023-05-21T11:20:55.260Z,76.55
2023-05-21T11:21:55.189Z,78.97
2023-05-21T11:22:55.192Z,77.81
2023-05-21T11:23:55.194Z,78.72
2023-05-21T11:24:55.173Z,77.80
2023-05-21T11:25:55.195Z,77.52
2023-05-21T11:26:55.170Z,76.65
2023-05-21T11:27:55.175Z,77.59
2023-05-21T11:28:56.143Z,74.85
2023-05-21T11:29:55.151Z,77.61
2023-05-21T11:30:55.167Z,77.17
2023-05-21T11:31:55.133Z,77.78
2023-05-21T11:32:55.222Z,74.91
2023-05-21T11:33:55.097Z,78.84
2023-05-21T11:34:55.113Z,77.60
2023-05-21T11:35:55.122Z,77.83
2023-05-21T11:36:55.092Z,77.48
2023-05-21T11:37:55.073Z,79.39
2023-05-21T11:38:55.059Z,73.81
2023-05-21T11:39:55.058Z,76.24
2023-05-21T11:40:55.483Z,75.18
2023-05-21T11:41:55.047Z,77.22
2023-05-21T11:42:55.038Z,76.88
2023-05-21T11:43:55.030Z,75.82
2023-05-21T11:44:55.032Z,74.96
2023-05-21T11:45:55.018Z,77.46
2023-05-21T11:46:55.142Z,76.58
2023-05-21T11:47:55.094Z,77.19
2023-05-21T11:48:55.004Z,74.93
2023-05-21T11:49:54.988Z,75.97
2023-05-21T11:50:54.972Z,78.12
2023-05-21T11:51:54.968Z,78.68
2023-05-21T11:52:54.997Z,75.29
2023-05-21T11:53:54.971Z,75.38
2023-05-21T11:54:54.949Z,73.45
2023-05-21T11:55:54.964Z,76.10
2023-05-21T11:56:54.942Z,74.43
2023-05-21T11:57:54.929Z,72.78
2023-05-21T11:58:54.929Z,76.15
2023-05-21T11:59:54.919Z,75.60
2023-05-21T12:00:54.926Z,75.26
2023-05-21T12:01:54.914Z,76.03
2023-05-21T12:02:54.969Z,76.83
2023-05-21T12:03:54.903Z,75.94
2023-05-21T12:04:54.891Z,75.16
2023-05-21T12:05:54.941Z,79.98
2023-05-21T12:06:54.869Z,75.21
2023-05-21T12:07:54.874Z,75.14
2023-05-21T12:08:54.873Z,73.96
2023-05-21T12:09:54.853Z,78.29
2023-05-21T12:10:54.836Z,79.01
2023-05-21T12:11:55.056Z,76.40
2023-05-21T12:12:56.868Z,76.92
2023-05-21T12:13:54.858Z,79.52
2023-05-21T12:14:54.811Z,77.17
2023-05-21T12:15:54.817Z,79.41
2023-05-21T12:16:54.897Z,76.83
2023-05-21T12:17:54.874Z,78.16
2023-05-21T12:18:54.815Z,79.30
2023-05-21T12:19:54.771Z,78.66
2023-05-21T12:20:54.799Z,78.43
2023-05-21T12:21:54.767Z,76.72
2023-05-21T12:22:54.752Z,80.76
2023-05-21T12:23:54.744Z,78.75
2023-05-21T12:24:54.759Z,79.66
2023-05-21T12:25:54.751Z,79.44
2023-05-21T12:26:54.720Z,81.30
2023-05-21T12:27:54.721Z,80.30
2023-05-21T12:28:54.722Z,81.02
2023-05-21T12:29:54.722Z,79.98
2023-05-21T12:30:54.701Z,79.29
2023-05-21T12:31:54.705Z,78.47
2023-05-21T12:32:54.763Z,77.84
2023-05-21T12:33:54.691Z,80.31
2023-05-21T12:34:54.872Z,79.34
2023-05-21T12:35:54.682Z,80.84
2023-05-21T12:36:54.670Z,81.11
2023-05-21T12:37:54.659Z,81.40
2023-05-21T12:38:54.646Z,79.96
2023-05-21T12:39:54.641Z,80.43
2023-05-21T12:40:54.639Z,79.34
2023-05-21T12:41:54.626Z,75.10
2023-05-21T12:42:54.621Z,79.41
2023-05-21T12:43:54.616Z,78.49
2023-05-21T12:44:54.602Z,79.86
2023-05-21T12:45:54.718Z,79.68
2023-05-21T12:46:54.592Z,81.60
2023-05-21T12:47:54.609Z,80.78
2023-05-21T12:48:54.587Z,81.00
2023-05-21T12:49:55.326Z,79.24
2023-05-21T12:50:54.604Z,78.72
2023-05-21T12:51:54.549Z,80.60
2023-05-21T12:52:54.573Z,79.99